createdAt,value
2023-02-11T00:01:43.943Z,0.37
2023-02-11T00:04:11.486Z,0.31
2023-02-11T00:06:40.599Z,0.25
2023-02-11T00:09:08.517Z,0.17
2023-02-11T00:11:36.180Z,0.11
2023-02-11T00:14:06.710Z,0.06
2023-02-11T00:16:34.342Z,0.03
2023-02-11T00:19:03.514Z,-0.10
2023-02-11T00:21:31.135Z,-0.29
2023-02-11T00:24:02.208Z,-0.40
2023-02-11T00:26:31.890Z,-0.44
2023-02-11T00:29:00.843Z,-0.40
2023-02-11T00:31:29.154Z,-0.31
2023-02-11T00:33:56.855Z,-0.35
2023-02-11T00:36:27.765Z,-0.42
2023-02-11T00:38:57.001Z,-0.44
2023-02-11T00:41:26.036Z,-0.54
2023-02-11T00:43:53.807Z,-0.65
2023-02-11T00:46:21.829Z,-0.74
2023-02-11T00:48:51.649Z,-0.82
2023-02-11T00:51:19.291Z,-0.87
2023-02-11T00:53:46.845Z,-0.93
2023-02-11T00:56:14.384Z,-0.95
2023-02-11T00:58:43.259Z,-0.92
2023-02-11T01:01:10.816Z,-0.84
2023-02-11T01:03:38.416Z,-0.79
2023-02-11T01:06:06.761Z,-0.82
2023-02-11T01:08:34.557Z,-0.89
2023-02-11T01:11:04.868Z,-0.93
2023-02-11T01:13:34.183Z,-1.00
2023-02-11T01:16:03.287Z,-0.99
2023-02-11T01:18:30.844Z,-1.00
2023-02-11T01:20:58.396Z,-1.04
2023-02-11T01:23:25.994Z,-1.08
2023-02-11T01:25:54.373Z,-1.03
2023-02-11T01:28:25.182Z,-1.05
2023-02-11T01:30:52.909Z,-1.13
2023-02-11T01:33:21.961Z,-1.17
2023-02-11T01:35:50.231Z,-1.19
2023-02-11T01:38:19.361Z,-1.17
2023-02-11T01:40:51.613Z,-1.19
2023-02-11T01:43:19.798Z,-1.19
2023-02-11T01:46:18.404Z,-1.13
2023-02-11T01:48:50.155Z,-1.09
2023-02-11T01:51:21.881Z,-1.01
2023-02-11T01:54:08.611Z,-0.95
2023-02-11T01:56:57.415Z,-0.88
2023-02-11T01:59:30.640Z,-0.78
2023-02-11T02:02:01.762Z,-0.71
2023-02-11T02:04:36.925Z,-0.69
2023-02-11T02:07:09.333Z,-0.66
2023-02-11T02:09:41.185Z,-0.67
2023-02-11T02:12:08.776Z,-0.68
2023-02-11T02:14:39.548Z,-0.71
2023-02-11T02:17:07.501Z,-0.72
2023-02-11T02:20:07.187Z,-0.72
2023-02-11T02:23:14.261Z,-0.71
2023-02-11T02:26:16.287Z,-0.77
2023-02-11T02:29:05.120Z,-0.80
2023-02-11T02:31:54.106Z,-0.80
2023-02-11T02:34:31.206Z,-0.77
2023-02-11T02:37:05.552Z,-0.72
2023-02-11T02:39:37.069Z,-0.66
2023-02-11T02:42:05.962Z,-0.60
2023-02-11T02:44:34.637Z,-0.69
2023-02-11T02:47:02.616Z,-0.69
2023-02-11T02:49:31.652Z,-0.66
2023-02-11T02:52:09.077Z,-0.73
2023-02-11T02:54:58.848Z,-0.73
2023-02-11T02:57:33.768Z,-0.78
2023-02-11T03:00:14.103Z,-0.88
2023-02-11T03:02:53.918Z,-0.90
2023-02-11T03:05:31.722Z,-0.92
2023-02-11T03:08:05.509Z,-0.92
2023-02-11T03:10:37.305Z,-0.86
2023-02-11T03:13:06.162Z,-0.81
2023-02-11T03:15:40.820Z,-0.84
2023-02-11T03:18:12.865Z,-0.85
2023-02-11T03:20:44.562Z,-0.87
2023-02-11T03:23:16.612Z,-0.87
2023-02-11T03:25:49.819Z,-0.84
2023-02-11T03:28:25.408Z,-0.78
2023-02-11T03:30:58.242Z,-0.70
2023-02-11T03:33:28.321Z,-0.64
2023-02-11T03:36:01.103Z,-0.64
2023-02-11T03:38:31.760Z,-0.60
2023-02-11T03:41:00.782Z,-0.58
2023-02-11T03:43:34.485Z,-0.49
2023-02-11T03:46:03.972Z,-0.48
2023-02-11T03:48:34.007Z,-0.46
2023-02-11T03:51:05.154Z,-0.39
2023-02-11T03:53:32.667Z,-0.33
2023-02-11T03:56:04.971Z,-0.27
2023-02-11T03:58:32.486Z,-0.30
2023-02-11T04:01:02.342Z,-0.35
2023-02-11T04:03:30.146Z,-0.43
2023-02-11T04:05:59.219Z,-0.44
2023-02-11T04:08:31.917Z,-0.46
2023-02-11T04:10:59.785Z,-0.47
2023-02-11T04:13:28.125Z,-0.48
2023-02-11T04:15:55.734Z,-0.49
2023-02-11T04:18:23.243Z,-0.49
2023-02-11T04:20:51.507Z,-0.50
2023-02-11T04:23:19.088Z,-0.48
2023-02-11T04:25:48.067Z,-0.43
2023-02-11T04:28:15.758Z,-0.34
2023-02-11T04:30:43.336Z,-0.32
2023-02-11T04:33:10.926Z,-0.31
2023-02-11T04:35:38.433Z,-0.29
2023-02-11T04:38:05.991Z,-0.30
2023-02-11T04:40:33.534Z,-0.30
2023-02-11T04:43:02.366Z,-0.24
2023-02-11T04:45:29.951Z,-0.17
2023-02-11T04:47:57.461Z,-0.08
2023-02-11T04:50:24.998Z,-0.05
2023-02-11T04:52:52.456Z,-0.01
2023-02-11T04:55:20.178Z,0.01
2023-02-11T04:57:47.696Z,0.04
2023-02-11T05:00:17.753Z,0.07
2023-02-11T05:02:45.298Z,0.09
2023-02-11T05:05:12.817Z,0.11
2023-02-11T05:07:40.307Z,0.16
2023-02-11T05:10:07.898Z,0.23
2023-02-11T05:12:35.391Z,0.29
2023-02-11T05:15:02.894Z,0.33
2023-02-11T05:17:31.716Z,0.32
2023-02-11T05:19:59.297Z,0.35
2023-02-11T05:22:26.810Z,0.34
2023-02-11T05:24:54.319Z,0.30
2023-02-11T05:27:21.857Z,0.34
2023-02-11T05:29:49.388Z,0.32
2023-02-11T05:32:16.950Z,0.28
2023-02-11T05:34:45.982Z,0.28
2023-02-11T05:37:13.519Z,0.32
2023-02-11T05:39:41.233Z,0.37
2023-02-11T05:42:08.762Z,0.43
2023-02-11T05:44:36.458Z,0.48
2023-02-11T05:47:04.146Z,0.47
2023-02-11T05:49:31.813Z,0.47
2023-02-11T05:52:00.723Z,0.49
2023-02-11T05:54:28.271Z,0.51
2023-02-11T05:56:55.886Z,0.55
2023-02-11T05:59:23.470Z,0.55
2023-02-11T06:01:50.985Z,0.58
2023-02-11T06:04:18.496Z,0.58
2023-02-11T06:06:45.988Z,0.53
2023-02-11T06:09:14.857Z,0.55
2023-02-11T06:11:42.365Z,0.57
2023-02-11T06:14:09.939Z,0.59
2023-02-11T06:16:37.622Z,0.64
2023-02-11T06:19:05.253Z,0.67
2023-02-11T06:21:43.368Z,0.72
2023-02-11T06:24:11.380Z,0.73
2023-02-11T06:26:40.243Z,0.68
2023-02-11T06:29:07.785Z,0.69
2023-02-11T06:31:35.519Z,0.72
2023-02-11T06:34:03.121Z,0.74
2023-02-11T06:36:30.623Z,0.68
2023-02-11T06:38:58.133Z,0.71
2023-02-11T06:41:25.702Z,0.78
2023-02-11T06:43:54.739Z,0.85
2023-02-11T06:46:22.445Z,0.91
2023-02-11T06:48:50.013Z,0.94
2023-02-11T06:51:18.289Z,0.94
2023-02-11T06:53:47.705Z,0.92
2023-02-11T06:56:18.164Z,0.90
2023-02-11T06:58:46.464Z,0.88
2023-02-11T07:01:17.192Z,0.89
2023-02-11T07:03:45.899Z,0.90
2023-02-11T07:06:16.009Z,0.89
2023-02-11T07:08:45.808Z,0.88
2023-02-11T07:11:15.160Z,0.92
2023-02-11T07:13:43.354Z,0.96
2023-02-11T07:16:13.858Z,1.02
2023-02-11T07:18:43.090Z,1.11
2023-02-11T07:21:13.189Z,1.18
2023-02-11T07:23:40.837Z,1.21
2023-02-11T07:26:10.687Z,1.28
2023-02-11T07:28:39.396Z,1.32
2023-02-11T07:31:08.063Z,1.35
2023-02-11T07:33:36.038Z,1.36
2023-02-11T07:36:07.439Z,1.36
2023-02-11T07:38:36.861Z,1.38
2023-02-11T07:41:06.664Z,1.41
2023-02-11T07:43:35.218Z,1.40
2023-02-11T07:46:04.819Z,1.44
2023-02-11T07:48:32.411Z,1.50
2023-02-11T07:51:08.600Z,1.54
2023-02-11T07:53:36.593Z,1.56
2023-02-11T07:56:04.926Z,1.57
2023-02-11T07:58:33.682Z,1.62
2023-02-11T08:01:05.731Z,1.71
2023-02-11T08:03:34.645Z,1.79
2023-02-11T08:06:04.999Z,1.79
2023-02-11T08:08:34.217Z,1.76
2023-02-11T08:11:07.483Z,1.75
2023-02-11T08:13:35.216Z,1.78
2023-02-11T08:16:03.204Z,1.82
2023-02-11T08:18:30.847Z,1.87
2023-02-11T08:20:58.388Z,1.92
2023-02-11T08:23:25.896Z,1.99
2023-02-11T08:25:54.718Z,2.08
2023-02-11T08:28:22.255Z,2.16
2023-02-11T08:30:50.111Z,2.23
2023-02-11T08:33:17.833Z,2.36
2023-02-11T08:35:45.387Z,2.44
2023-02-11T08:38:12.934Z,2.53
2023-02-11T08:40:40.419Z,2.61
2023-02-11T08:43:09.302Z,2.71
2023-02-11T08:45:38.116Z,2.73
2023-02-11T08:48:05.749Z,2.76
2023-02-11T08:50:33.324Z,2.83
2023-02-11T08:53:00.832Z,2.91
2023-02-11T08:55:28.333Z,3.02
2023-02-11T08:57:55.810Z,3.16
2023-02-11T09:00:25.822Z,3.21
2023-02-11T09:02:53.510Z,3.24
2023-02-11T09:05:21.771Z,3.30
2023-02-11T09:07:49.519Z,3.34
2023-02-11T09:10:17.282Z,3.43
2023-02-11T09:12:44.792Z,3.54
2023-02-11T09:15:12.311Z,3.70
2023-02-11T09:17:41.163Z,4.01
2023-02-11T09:20:10.845Z,4.47
2023-02-11T09:22:38.485Z,4.83
2023-02-11T09:25:06.781Z,4.97
2023-02-11T09:27:34.290Z,4.98
2023-02-11T09:30:01.942Z,4.94
2023-02-11T09:32:29.445Z,4.93
2023-02-11T09:34:58.276Z,4.91
2023-02-11T09:37:25.797Z,4.86
2023-02-11T09:39:53.301Z,4.84
2023-02-11T09:42:44.337Z,4.82
2023-02-11T09:45:17.304Z,4.78
2023-02-11T09:47:49.711Z,4.75
2023-02-11T09:50:23.869Z,4.75
2023-02-11T09:52:57.745Z,4.80
2023-02-11T09:55:29.096Z,4.91
2023-02-11T09:57:57.308Z,5.08
2023-02-11T10:00:29.840Z,5.24
2023-02-11T10:03:19.852Z,5.36
2023-02-11T10:06:10.990Z,5.44
2023-02-11T10:08:47.835Z,5.48
2023-02-11T10:11:31.603Z,5.53
2023-02-11T10:14:10.910Z,5.52
2023-02-11T10:16:50.698Z,5.63
2023-02-11T10:19:31.245Z,5.73
2023-02-11T10:22:10.750Z,5.77
2023-02-11T10:24:39.029Z,5.78
2023-02-11T10:27:16.034Z,5.89
2023-02-11T10:29:50.671Z,6.07
2023-02-11T10:32:30.452Z,6.30
2023-02-11T10:35:04.829Z,6.67
2023-02-11T10:37:33.659Z,7.06
2023-02-11T10:40:01.184Z,7.42
2023-02-11T10:42:29.682Z,7.81
2023-02-11T10:45:01.468Z,8.23
2023-02-11T10:47:33.753Z,8.57
2023-02-11T10:50:03.638Z,8.87
2023-02-11T10:52:32.826Z,9.22
2023-02-11T10:55:03.815Z,9.66
2023-02-11T10:57:38.250Z,10.01
2023-02-11T11:00:21.988Z,10.35
2023-02-11T11:02:56.314Z,10.65
2023-02-11T11:05:30.664Z,10.90
2023-02-11T11:08:01.359Z,11.13
2023-02-11T11:10:32.637Z,11.34
2023-02-11T11:13:00.125Z,11.49
2023-02-11T11:15:29.825Z,11.69
2023-02-11T11:18:22.627Z,11.89
2023-02-11T11:20:58.262Z,12.13
2023-02-11T11:23:28.861Z,12.47
2023-02-11T11:26:06.428Z,12.70
2023-02-11T11:28:40.476Z,12.94
2023-02-11T11:31:15.440Z,13.22
2023-02-11T11:33:44.960Z,13.39
2023-02-11T11:36:14.714Z,13.67
2023-02-11T11:38:50.258Z,13.99
2023-02-11T11:41:24.360Z,14.23
2023-02-11T11:44:04.483Z,14.48
2023-02-11T11:46:35.623Z,14.70
2023-02-11T11:49:16.016Z,14.92
2023-02-11T11:51:46.563Z,15.19
2023-02-11T11:54:19.370Z,15.43
2023-02-11T11:56:54.351Z,15.62
2023-02-11T11:59:23.455Z,15.85
2023-02-11T12:02:13.457Z,15.94
2023-02-11T12:04:59.189Z,16.04
2023-02-11T12:07:38.884Z,16.22
2023-02-11T12:10:34.209Z,16.38
2023-02-11T12:13:12.402Z,16.51
2023-02-11T12:15:47.710Z,16.67
2023-02-11T12:18:26.750Z,16.73
2023-02-11T12:21:26.057Z,16.68
2023-02-11T12:24:07.238Z,16.59
2023-02-11T12:26:45.230Z,16.40
2023-02-11T12:29:28.734Z,16.19
2023-02-11T12:32:05.498Z,16.10
2023-02-11T12:34:56.521Z,15.90
2023-02-11T12:37:38.784Z,15.65
2023-02-11T12:40:18.413Z,15.41
2023-02-11T12:43:14.203Z,15.28
2023-02-11T12:46:33.131Z,15.07
2023-02-11T12:49:25.307Z,14.76
2023-02-11T12:52:09.525Z,14.54
2023-02-11T12:54:41.143Z,14.42
2023-02-11T12:57:17.824Z,14.25
2023-02-11T12:59:55.452Z,14.10
2023-02-11T13:02:33.805Z,13.87
2023-02-11T13:05:06.272Z,13.61
2023-02-11T13:07:40.090Z,13.43
2023-02-11T13:10:23.602Z,13.28
2023-02-11T13:13:10.623Z,13.08
2023-02-11T13:15:38.562Z,12.89
2023-02-11T13:23:31.937Z,12.45
2023-02-11T13:26:12.412Z,12.26
2023-02-11T13:28:49.664Z,12.03
2023-02-11T13:31:20.234Z,11.89
2023-02-11T13:33:49.780Z,11.85
2023-02-11T13:36:25.927Z,11.73
2023-02-11T13:38:58.615Z,11.54
2023-02-11T13:41:28.856Z,11.36
2023-02-11T13:44:22.290Z,11.08
2023-02-11T13:46:54.328Z,10.93
2023-02-11T13:49:24.745Z,10.84
2023-02-11T13:51:54.079Z,10.74
2023-02-11T13:54:27.203Z,10.59
2023-02-11T13:57:22.699Z,10.43
2023-02-11T13:59:52.178Z,10.24
2023-02-11T14:02:43.309Z,10.11
2023-02-11T14:05:43.194Z,10.08
2023-02-11T14:08:39.403Z,10.01
2023-02-11T14:11:12.674Z,9.96
2023-02-11T14:14:14.875Z,9.84
2023-02-11T14:17:12.636Z,9.70
2023-02-11T14:19:43.592Z,9.56
2023-02-11T14:22:16.536Z,9.46
2023-02-11T14:24:51.012Z,9.43
2023-02-11T14:27:41.845Z,9.47
2023-02-11T14:30:21.560Z,9.39
2023-02-11T14:33:15.184Z,9.26
2023-02-11T14:35:52.676Z,9.15
2023-02-11T14:38:27.770Z,9.06
2023-02-11T14:41:01.926Z,8.98
2023-02-11T14:43:36.205Z,8.93
2023-02-11T14:46:05.124Z,8.88
2023-02-11T14:48:55.252Z,8.86
2023-02-11T14:55:20.569Z,8.76
2023-02-11T14:57:51.560Z,8.68
2023-02-11T15:00:35.744Z,8.62
2023-02-11T15:21:30.881Z,8.32
2023-02-11T15:24:27.870Z,8.30
2023-02-11T15:27:20.269Z,8.29
2023-02-11T16:25:53.081Z,7.62
2023-02-11T19:13:01.507Z,6.32
2023-02-11T20:06:36.299Z,6.26
2023-02-11T20:09:06.219Z,6.25
2023-02-11T20:11:34.993Z,6.24
2023-02-11T20:14:02.641Z,6.24
2023-02-11T20:16:46.924Z,6.27
2023-02-11T20:19:17.820Z,6.29
2023-02-11T20:21:48.947Z,6.29
2023-02-11T20:24:17.245Z,6.27
2023-02-11T20:26:46.469Z,6.27
2023-02-11T20:29:13.983Z,6.26
2023-02-11T20:31:41.769Z,6.25
2023-02-11T20:34:09.421Z,6.25
2023-02-11T20:36:38.657Z,6.27
2023-02-11T20:39:08.169Z,6.29
2023-02-11T20:41:39.772Z,6.29
2023-02-11T20:44:09.660Z,6.25
2023-02-11T20:46:39.973Z,6.21
2023-02-11T20:49:08.745Z,6.17
2023-02-11T20:51:37.310Z,6.15
2023-02-11T20:54:06.052Z,6.14
2023-02-11T20:56:36.941Z,6.16
2023-02-11T20:59:06.085Z,6.18
2023-02-11T21:01:36.030Z,6.16
2023-02-11T21:04:05.608Z,6.11
2023-02-11T21:06:35.906Z,6.09
2023-02-11T21:09:04.901Z,6.10
2023-02-11T21:11:32.595Z,6.13
2023-02-11T21:14:02.383Z,6.15
2023-02-11T21:16:30.122Z,6.19
2023-02-11T21:18:57.971Z,6.19
2023-02-11T21:21:26.212Z,6.19
2023-02-11T21:23:53.787Z,6.16
2023-02-11T21:26:21.343Z,6.12
2023-02-11T21:28:50.042Z,6.11
2023-02-11T21:31:23.662Z,6.09
2023-02-11T21:33:53.025Z,6.03
2023-02-11T21:36:20.705Z,6.03
2023-02-11T21:38:48.734Z,6.02
2023-02-11T21:41:17.215Z,6.00
2023-02-11T21:43:44.950Z,5.95
2023-02-11T21:46:14.473Z,5.94
2023-02-11T21:48:43.784Z,5.93
2023-02-11T21:51:15.067Z,5.95
2023-02-11T21:53:42.598Z,5.98
2023-02-11T21:56:12.287Z,5.98
2023-02-11T21:58:39.964Z,6.00
2023-02-11T22:01:12.924Z,6.03
2023-02-11T22:03:40.728Z,6.01
2023-02-11T22:06:12.699Z,6.00
2023-02-11T22:08:41.058Z,6.00
2023-02-11T22:11:12.230Z,5.99
2023-02-11T22:13:40.560Z,5.99
2023-02-11T22:16:11.971Z,5.97
2023-02-11T22:18:40.016Z,5.94
2023-02-11T22:21:11.068Z,5.90
2023-02-11T22:23:39.486Z,5.88
2023-02-11T22:26:09.888Z,5.87
2023-02-11T22:28:40.492Z,5.84
2023-02-11T22:31:09.224Z,5.81
2023-02-11T22:33:36.935Z,5.79
2023-02-11T22:36:08.518Z,5.80
2023-02-11T22:38:37.442Z,5.83
2023-02-11T22:41:07.437Z,5.86
2023-02-11T22:43:35.106Z,5.89
2023-02-11T22:46:03.337Z,5.89
2023-02-11T22:48:30.954Z,5.88
2023-02-11T22:51:04.030Z,5.89
2023-02-11T22:53:31.563Z,5.88
2023-02-11T22:56:05.270Z,5.83
2023-02-11T22:58:32.838Z,5.81
2023-02-11T23:01:00.557Z,5.80
2023-02-11T23:03:28.880Z,5.82
2023-02-11T23:05:59.013Z,5.82
2023-02-11T23:08:28.124Z,5.81
2023-02-11T23:10:55.822Z,5.82
2023-02-11T23:13:24.663Z,5.78
2023-02-11T23:15:52.386Z,5.76
2023-02-11T23:18:20.010Z,5.74
2023-02-11T23:20:47.547Z,5.74
2023-02-11T23:23:15.109Z,5.77
2023-02-11T23:25:44.985Z,5.80
2023-02-11T23:28:13.234Z,5.81
2023-02-11T23:30:42.454Z,5.79
2023-02-11T23:33:09.968Z,5.80
2023-02-11T23:35:37.780Z,5.81
2023-02-11T23:38:05.263Z,5.85
2023-02-11T23:40:32.781Z,5.87
2023-02-11T23:43:00.350Z,5.87
2023-02-11T23:45:27.897Z,5.85
2023-02-11T23:47:56.729Z,5.80
2023-02-11T23:50:24.281Z,5.76
2023-02-11T23:52:51.840Z,5.73
2023-02-11T23:55:19.408Z,5.70
2023-02-11T23:57:46.970Z,5.67
